Home > Products > Valid Products > TAF

000
FTUS41 KBUF 081748
TAFROC
TAF
KROC 081748Z 0818/0918 13010KT P6SM BKN080
     FM090500 10007KT 2SM -SN OVC035
     FM091200 16004KT P6SM VCSH OVC025
     FM091400 VRB03KT P6SM VCSH OVC020=



000
FTUS41 KBUF 081748
TAFBUF
TAF
KBUF 081748Z 0818/0918 14008KT P6SM BKN050
     FM090300 11007KT 2SM -RASN OVC030
     FM090400 10006KT 2SM -SN OVC025
     FM091000 14005KT P6SM VCSH OVC020
     FM091400 20007KT P6SM OVC015=



000
FTUS41 KBUF 081748
TAFJHW
TAF
KJHW 081748Z 0818/0918 15012KT P6SM OVC060
     FM090000 14008KT 2SM -SNRA OVC030
     FM090100 14009KT 2SM -SN OVC030
     FM090700 18007KT P6SM VCSH OVC007
     FM090800 18007KT P6SM VCSH OVC012
      AMD LTD TO CLD VIS AND WIND=



000
FTUS41 KBUF 081748
TAFART
TAF
KART 081748Z 0818/0918 09007KT P6SM BKN110
     FM082100 05009KT P6SM SCT050 OVC100
     FM090600 06007KT 5SM -SN OVC045
     FM091300 05007KT P6SM VCSH OVC030
     FM091400 06007KT P6SM OVC030=



000
FTUS41 KBUF 081748
TAFIAG
TAF
KIAG 081748Z 0818/0918 14009KT P6SM OVC050
     FM090200 10008KT 2SM -RASN OVC030
     FM090300 10009KT 2SM -SN OVC020
     FM091000 12006KT P6SM VCSH OVC015
     FM091400 18006KT P6SM OVC020=



000
FTUS41 KBUF 081501 AAA
TAFROC
TAF AMD
KROC 081501Z 0815/0912 13008KT P6SM BKN080
     FM082000 10010KT P6SM SCT050 BKN080
     FM090400 11008KT P6SM VCSH OVC035
     FM090900 12009KT 5SM -SN BKN025=



000
FTUS41 KBUF 081501 AAA
TAFIAG
TAF AMD
KIAG 081501Z 0815/0912 12008KT P6SM BKN080
     FM082000 09010KT P6SM BKN050
     FM090000 09010KT P6SM VCSH OVC040
     FM090300 11008KT 4SM -SN BKN025
     FM090900 12004KT 2SM -SN SCT008 OVC015=



000
FTUS41 KBUF 081501 AAA
TAFJHW
TAF AMD
KJHW 081501Z 0815/0912 15010KT P6SM BKN060
     FM082000 14010KT P6SM VCSH SCT035 BKN060
     FM082300 14008KT 4SM -RASN BKN035
     FM090200 15008KT 2SM -SN OVC015
     FM090600 18006KT 2SM -SN BR OVC007
      AMD LTD TO CLD VIS AND WIND=



000
FTUS41 KBUF 081501 AAA
TAFART
TAF AMD
KART 081501Z 0815/0912 06008KT P6SM SCT080 BKN250
     FM082100 06008KT P6SM BKN080
     FM090400 06006KT P6SM VCSH OVC040
     FM090800 06007KT 4SM -SN OVC025=



000
FTUS41 KBUF 081501 AAA
TAFBUF
TAF AMD
KBUF 081501Z 0815/0912 12006KT P6SM BKN080
     FM082300 10007KT P6SM VCSH BKN050
     FM090300 11007KT 4SM -SN BKN025
     FM090900 VRB03KT 2SM -SN BKN015=



000
FTUS41 KBUF 081501 AAA
TAFIAG
TAF AMD
KIAG 081501Z 0815/0912 12008KT P6SM BKN080
     FM082000 09010KT P6SM BKN050
     FM090000 09010KT P6SM VCSH OVC040
     FM090300 11008KT 4SM -SN BKN025
     FM090900 12004KT 2SM -SN SCT008 OVC015=



000
FTUS41 KBUF 081501 AAA
TAFROC
TAF AMD
KROC 081501Z 0815/0912 13008KT P6SM BKN080
     FM082000 10010KT P6SM SCT050 BKN080
     FM090400 11008KT P6SM VCSH OVC035
     FM090900 12009KT 5SM -SN BKN025=



000
FTUS41 KBUF 081501 AAA
TAFJHW
TAF AMD
KJHW 081501Z 0815/0912 15010KT P6SM BKN060
     FM082000 14010KT P6SM VCSH SCT035 BKN060
     FM082300 14008KT 4SM -RASN BKN035
     FM090200 15008KT 2SM -SN OVC015
     FM090600 18006KT 2SM -SN BR OVC007
      AMD LTD TO CLD VIS AND WIND=



000
FTUS41 KBUF 081501 AAA
TAFART
TAF AMD
KART 081501Z 0815/0912 06008KT P6SM SCT080 BKN250
     FM082100 06008KT P6SM BKN080
     FM090400 06006KT P6SM VCSH OVC040
     FM090800 06007KT 4SM -SN OVC025=



000
FTUS41 KBUF 081501 AAA
TAFBUF
TAF AMD
KBUF 081501Z 0815/0912 12006KT P6SM BKN080
     FM082300 10007KT P6SM VCSH BKN050
     FM090300 11007KT 4SM -SN BKN025
     FM090900 VRB03KT 2SM -SN BKN015=



000
FTUS41 KBUF 081120
TAFJHW
TAF
KJHW 081120Z 0812/0912 16006KT P6SM SCT100 OVC250
     FM081500 15010KT P6SM BKN070
     FM082000 14010KT P6SM VCSH SCT035 BKN060
     FM082300 14008KT 4SM -RASN BKN035
     FM090200 15008KT 2SM -SN OVC015
     FM090600 18006KT 2SM -SN BR OVC007
      AMD LTD TO CLD VIS AND WIND=



000
FTUS41 KBUF 081120
TAFBUF
TAF
KBUF 081120Z 0812/0912 14006KT P6SM BKN080
     FM081500 14010KT P6SM BKN050
     FM082300 10007KT P6SM VCSH BKN050
     FM090300 11007KT 4SM -SN BKN025
     FM090900 VRB03KT 2SM -SN BKN015=



000
FTUS41 KBUF 081120
TAFART
TAF
KART 081120Z 0812/0912 06008KT P6SM SCT080 BKN250
     FM082100 06008KT P6SM BKN080
     FM090400 06006KT P6SM VCSH OVC040
     FM090800 06007KT 4SM -SN OVC025=



000
FTUS41 KBUF 081120
TAFBUF
TAF
KBUF 081120Z 0812/0912 14006KT P6SM BKN080
     FM081500 14010KT P6SM BKN050
     FM082300 10007KT P6SM VCSH BKN050
     FM090300 11007KT 4SM -SN BKN025
     FM090900 VRB03KT 2SM -SN BKN015=



000
FTUS41 KBUF 081120
TAFJHW
TAF
KJHW 081120Z 0812/0912 16006KT P6SM SCT100 OVC250
     FM081500 15010KT P6SM BKN070
     FM082000 14010KT P6SM VCSH SCT035 BKN060
     FM082300 14008KT 4SM -RASN BKN035
     FM090200 15008KT 2SM -SN OVC015
     FM090600 18006KT 2SM -SN BR OVC007
      AMD LTD TO CLD VIS AND WIND=



000
FTUS41 KBUF 081120
TAFROC
TAF
KROC 081120Z 0812/0912 13008KT P6SM BKN080
     FM082000 10010KT P6SM SCT050 BKN080
     FM090400 11008KT P6SM VCSH OVC035
     FM090900 12009KT 5SM -SN BKN025=



000
FTUS41 KBUF 081120
TAFART
TAF
KART 081120Z 0812/0912 06008KT P6SM SCT080 BKN250
     FM082100 06008KT P6SM BKN080
     FM090400 06006KT P6SM VCSH OVC040
     FM090800 06007KT 4SM -SN OVC025=



000
FTUS41 KBUF 081120
TAFIAG
TAF
KIAG 081120Z 0812/0912 12006KT P6SM BKN080
     FM082000 09010KT P6SM BKN050
     FM090000 09010KT P6SM VCSH OVC040
     FM090300 11008KT 4SM -SN BKN025
     FM090900 12004KT 2SM -SN SCT008 OVC015=



000
FTUS41 KBUF 081120
TAFROC
TAF
KROC 081120Z 0812/0912 13008KT P6SM BKN080
     FM082000 10010KT P6SM SCT050 BKN080
     FM090400 11008KT P6SM VCSH OVC035
     FM090900 12009KT 5SM -SN BKN025=



000
FTUS41 KBUF 081120
TAFIAG
TAF
KIAG 081120Z 0812/0912 12006KT P6SM BKN080
     FM082000 09010KT P6SM BKN050
     FM090000 09010KT P6SM VCSH OVC040
     FM090300 11008KT 4SM -SN BKN025
     FM090900 12004KT 2SM -SN SCT008 OVC015=



000
FTUS41 KBUF 080912 AAA
TAFART
TAF AMD
KART 080912Z 0809/0906 05008KT P6SM SCT120 BKN250
     FM090000 06008KT P6SM BKN100
     FM090400 06006KT 4SM -SN BKN040=



000
FTUS41 KBUF 080910 AAA
TAFJHW
TAF AMD
KJHW 080910Z 0809/0906 17006KT P6SM SCT070 BKN250
     FM081300 16008KT P6SM BKN070
     FM082100 15008KT P6SM VCSH OVC045
     FM082300 14007KT 4SM -RASN OVC025
     FM090200 14007KT 2SM -SN SCT008 BKN015
      AMD LTD TO CLD VIS AND WIND=



000
FTUS41 KBUF 080908 AAA
TAFROC
TAF AMD
KROC 080908Z 0809/0906 13005KT P6SM BKN080
     FM081200 13005KT P6SM SCT080 BKN250
     FM081500 12008KT P6SM BKN080
     FM090000 10009KT P6SM VCSH SCT040 OVC070
     FM090300 10009KT 3SM -SN OVC040=



000
FTUS41 KBUF 080908 AAA
TAFROC
TAF AMD
KROC 080908Z 0809/0906 13005KT P6SM BKN080
     FM081200 13005KT P6SM SCT080 BKN250
     FM081500 12008KT P6SM BKN080
     FM090000 10009KT P6SM VCSH SCT040 OVC070
     FM090300 10009KT 3SM -SN OVC040=



000
FTUS41 KBUF 080906 AAA
TAFIAG
TAF AMD
KIAG 080906Z 0809/0906 13005KT P6SM BKN070
     FM082000 10010KT P6SM OVC050
     FM090000 10010KT 6SM -RA OVC040
     FM090300 09010KT 3SM -RASN OVC040=



000
FTUS41 KBUF 080904 AAA
TAFBUF
TAF AMD
KBUF 080904Z 0809/0906 13006KT P6SM BKN070
     FM082100 11008KT P6SM OVC050
     FM090000 10008KT 6SM -RA OVC050
     FM090300 10008KT 3SM -RASN OVC040=



000
FTUS41 KBUF 080904 AAA
TAFBUF
TAF AMD
KBUF 080904Z 0809/0906 13006KT P6SM BKN070
     FM082100 11008KT P6SM OVC050
     FM090000 10008KT 6SM -RA OVC050
     FM090300 10008KT 3SM -RASN OVC040=



000
FTUS41 KBUF 080520
TAFART
TAF
KART 080520Z 0806/0906 06004KT P6SM BKN100
     FM081400 09007KT P6SM BKN060
     FM090100 05008KT P6SM VCSH OVC060
     FM090400 06008KT 2SM -SN OVC040=



000
FTUS41 KBUF 080520
TAFJHW
TAF
KJHW 080520Z 0806/0906 16005KT P6SM BKN200
     FM080900 15007KT P6SM OVC120
     FM081600 15010KT P6SM OVC080
     FM082100 15008KT P6SM VCSH OVC045
     FM082300 14007KT 2SM -SN OVC030
      AMD LTD TO CLD VIS AND WIND=



000
FTUS41 KBUF 080520
TAFROC
TAF
KROC 080520Z 0806/0906 VRB03KT P6SM BKN120
     FM080900 15005KT P6SM BKN070
     FM081700 13010KT P6SM OVC110
     FM082200 10009KT P6SM OVC070
     FM082300 10009KT P6SM VCSH OVC070
     FM090300 10009KT 2SM -SN OVC040=



000
FTUS41 KBUF 080520
TAFBUF
TAF
KBUF 080520Z 0806/0906 16006KT P6SM BKN080
     FM080700 15006KT P6SM OVC070
     FM082100 11008KT P6SM OVC050
     FM082300 10008KT 6SM -RA OVC050
     FM090200 10008KT 2SM -SN OVC045=



000
FTUS41 KBUF 080520
TAFIAG
TAF
KIAG 080520Z 0806/0906 16005KT P6SM OVC070
     FM081100 12004KT P6SM OVC070
     FM081400 15008KT P6SM OVC050
     FM082000 11009KT P6SM OVC050
     FM082300 10010KT 6SM -RA OVC040
     FM090200 09010KT 2SM -SN OVC040=



000
FTUS41 KBUF 080303 AAA
TAFART
TAF AMD
KART 080303Z 0803/0824 06005KT P6SM BKN200
     FM080700 09005KT P6SM BKN070
     FM081000 10005KT P6SM BKN120
     FM081400 10007KT P6SM BKN060
     FM081700 08008KT P6SM BKN110
     FM081900 07009KT P6SM BKN070=



000
FTUS41 KBUF 080303 AAA
TAFIAG
TAF AMD
KIAG 080303Z 0803/0824 16006KT P6SM BKN070
     FM082000 11009KT P6SM OVC050
     FM082200 10009KT P6SM VCSH OVC050=



000
FTUS41 KBUF 080303 AAA
TAFBUF
TAF AMD
KBUF 080303Z 0803/0824 14006KT P6SM BKN070
     FM080600 16006KT P6SM BKN120
     FM080800 15006KT P6SM OVC070
     FM081400 15010KT P6SM OVC060
     FM082100 11008KT P6SM OVC050
     FM082300 10008KT P6SM VCSH OVC050=



000
FTUS41 KBUF 080303 AAA
TAFROC
TAF AMD
KROC 080303Z 0803/0824 13006KT P6SM BKN120
     FM081400 14010KT P6SM OVC060
     FM081700 13009KT P6SM OVC110
     FM082200 10009KT P6SM OVC070=



000
FTUS41 KBUF 080303 AAA
TAFJHW
TAF AMD
KJHW 080303Z 0803/0824 17005KT P6SM BKN200
     FM080400 17007KT P6SM BKN110
     FM081500 15010KT P6SM OVC060
     FM082100 15009KT P6SM VCSH OVC060
      AMD LTD TO CLD VIS AND WIND=



000
FTUS41 KBUF 072321
TAFBUF
TAF
KBUF 072321Z 0800/0824 14006KT P6SM BKN090
     FM080600 16006KT P6SM BKN120
     FM080800 15006KT P6SM OVC070
     FM081400 15010KT P6SM OVC060
     FM082100 11008KT P6SM OVC050
     FM082300 10008KT P6SM VCSH OVC050=



000
FTUS41 KBUF 072321
TAFJHW
TAF
KJHW 072321Z 0800/0824 17005KT P6SM BKN200
     FM080400 17007KT P6SM BKN110
     FM081500 15010KT P6SM OVC060
     FM082100 15009KT P6SM VCSH OVC060
      AMD LTD TO CLD VIS AND WIND=



000
FTUS41 KBUF 072321
TAFIAG
TAF
KIAG 072321Z 0800/0824 16006KT P6SM BKN080
     FM082000 11009KT P6SM OVC050
     FM082200 10009KT P6SM VCSH OVC050=



000
FTUS41 KBUF 072321
TAFROC
TAF
KROC 072321Z 0800/0824 13006KT P6SM BKN090
     FM081400 14010KT P6SM OVC060
     FM081700 13009KT P6SM OVC110
     FM082200 10009KT P6SM OVC070=



000
FTUS41 KBUF 072321
TAFART
TAF
KART 072321Z 0800/0824 07005KT P6SM BKN200
     FM080700 09005KT P6SM BKN070
     FM081000 10005KT P6SM BKN120
     FM081400 10007KT P6SM BKN060
     FM081700 08008KT P6SM BKN110
     FM081900 07009KT P6SM BKN070=



000
FTUS41 KBUF 072023 AAA
TAFBUF
TAF AMD
KBUF 072023Z 0720/0818 19010KT P6SM SCT060 BKN150
     FM080000 16006KT P6SM SCT060 BKN120
     FM081400 15010KT P6SM OVC080=



000
FTUS41 KBUF 072023 AAA
TAFIAG
TAF AMD
KIAG 072023Z 0720/0818 18010KT P6SM SCT060 BKN150
     FM080000 17007KT P6SM SCT060 BKN100
     FM081400 14010KT P6SM OVC080=



000
FTUS41 KBUF 072023 AAA
TAFJHW
TAF AMD
KJHW 072023Z 0720/0818 19010KT P6SM BKN070
     FM080000 17008KT P6SM BKN100
     FM081400 15012KT P6SM OVC070
      AMD LTD TO CLD VIS AND WIND=



000
FTUS41 KBUF 072023 AAA
TAFART
TAF AMD
KART 072023Z 0720/0818 14005KT P6SM SCT040 BKN100
     FM080300 09005KT P6SM BKN120
     FM081200 08008KT P6SM SCT015 BKN100=



000
FTUS41 KBUF 072023 AAA
TAFROC
TAF AMD
KROC 072023Z 0720/0818 21008KT P6SM SCT060 SCT200
     FM080100 13006KT P6SM SCT060 BKN100
     FM081400 14010KT P6SM OVC080=



000
FTUS41 KBUF 071731
TAFJHW
TAF
KJHW 071731Z 0718/0818 18010G16KT P6SM SCT150
     FM072100 17008KT P6SM BKN120
     FM081400 15012KT P6SM OVC070
      AMD LTD TO CLD VIS AND WIND=



000
FTUS41 KBUF 071731
TAFIAG
TAF
KIAG 071731Z 0718/0818 18012KT P6SM SCT200
     FM072100 17007KT P6SM SCT060 BKN100
     FM081400 14010KT P6SM OVC080=



000
FTUS41 KBUF 071731
TAFROC
TAF
KROC 071731Z 0718/0818 19010KT P6SM SCT200
     FM072300 13006KT P6SM SCT060 BKN100
     FM081400 14010KT P6SM OVC080=



000
FTUS41 KBUF 071731
TAFBUF
TAF
KBUF 071731Z 0718/0818 19012KT P6SM SCT200
     FM072100 16006KT P6SM SCT060 BKN120
     FM081400 15010KT P6SM OVC080=



000
FTUS41 KBUF 071731
TAFART
TAF
KART 071731Z 0718/0818 18007KT P6SM BKN040
     FM072000 VRB03KT P6SM SCT040
     FM080300 09005KT P6SM BKN120
     FM081500 08008KT P6SM BKN100=



000
FTUS41 KBUF 071618 AAC
TAFART
TAF AMD
KART 071618Z 0716/0812 17005KT P6SM BKN025
     FM071700 18007KT P6SM BKN050
     FM072000 VRB03KT P6SM SCT050 BKN080
     FM080000 08005KT P6SM BKN110=



000
FTUS41 KBUF 071432 AAB
TAFBUF
TAF AMD
KBUF 071432Z 0715/0812 19007KT P6SM SCT250
     FM072000 16007KT P6SM BKN060
     FM080600 15007KT P6SM OVC050=



000
FTUS41 KBUF 071432 AAB
TAFART
TAF AMD
KART 071432Z 0715/0812 22005KT P6SM BKN025
     FM071600 18007KT P6SM BKN050
     FM072000 VRB03KT P6SM SCT050 BKN080
     FM080000 08005KT P6SM BKN110=



000
FTUS41 KBUF 071432 AAA
TAFROC
TAF AMD
KROC 071432Z 0715/0812 19007KT P6SM SCT250
     FM072000 15007KT P6SM BKN110
     FM080200 15007KT P6SM BKN050=



000
FTUS41 KBUF 071432 AAA
TAFJHW
TAF AMD
KJHW 071432Z 0715/0812 18007KT P6SM SCT250
     FM071700 18010G16KT P6SM SCT250
     FM072100 17010KT P6SM SCT050 BKN100
     FM080900 16008KT P6SM OVC060
      AMD LTD TO CLD VIS AND WIND=



000
FTUS41 KBUF 071432 AAA
TAFIAG
TAF AMD
KIAG 071432Z 0715/0812 18007KT P6SM SCT250
     FM072100 16007KT P6SM SCT035 BKN050=



000
FTUS41 KBUF 071432 AAB
TAFBUF
TAF AMD
KBUF 071432Z 0715/0812 19007KT P6SM SCT250
     FM072000 16007KT P6SM BKN060
     FM080600 15007KT P6SM OVC050=



000
FTUS41 KBUF 071432 AAA
TAFJHW
TAF AMD
KJHW 071432Z 0715/0812 18007KT P6SM SCT250
     FM071700 18010G16KT P6SM SCT250
     FM072100 17010KT P6SM SCT050 BKN100
     FM080900 16008KT P6SM OVC060
      AMD LTD TO CLD VIS AND WIND=



000
FTUS41 KBUF 071432 AAA
TAFIAG
TAF AMD
KIAG 071432Z 0715/0812 18007KT P6SM SCT250
     FM072100 16007KT P6SM SCT035 BKN050=



000
FTUS41 KBUF 071432 AAA
TAFROC
TAF AMD
KROC 071432Z 0715/0812 19007KT P6SM SCT250
     FM072000 15007KT P6SM BKN110
     FM080200 15007KT P6SM BKN050=



000
FTUS41 KBUF 071432 AAB
TAFART
TAF AMD
KART 071432Z 0715/0812 22005KT P6SM BKN025
     FM071600 18007KT P6SM BKN050
     FM072000 VRB03KT P6SM SCT050 BKN080
     FM080000 08005KT P6SM BKN110=



000
FTUS41 KBUF 071159 AAA
TAFART
TAF AMD
KART 071159Z 0712/0812 22007KT P6SM SCT015 BKN050
      TEMPO 0712/0714 BKN015
     FM071600 18007KT P6SM BKN050
     FM072000 VRB03KT P6SM SCT050 BKN080
     FM080000 08005KT P6SM BKN110=



000
FTUS41 KBUF 071120
TAFBUF
TAF
KBUF 071120Z 0712/0812 20005KT P6SM SCT015 BKN035
     FM071330 19007KT P6SM FEW035 SCT250
     FM072000 16007KT P6SM SCT050 BKN070
     FM080600 15007KT P6SM OVC050=



000
FTUS41 KBUF 071120
TAFROC
TAF
KROC 071120Z 0712/0812 21005KT P6SM SCT015 BKN035
     FM071430 19007KT P6SM SCT130 SCT250
     FM072000 15007KT P6SM BKN110
     FM080200 15007KT P6SM BKN050=



000
FTUS41 KBUF 071120
TAFIAG
TAF
KIAG 071120Z 0712/0812 21005KT P6SM SCT015 BKN035
     FM071330 18007KT P6SM SCT140 BKN250
     FM072100 16007KT P6SM SCT035 BKN050=



000
FTUS41 KBUF 071120
TAFART
TAF
KART 071120Z 0712/0812 22007KT P6SM BKN050
     FM071600 18007KT P6SM BKN050
     FM072000 VRB03KT P6SM SCT050 BKN080
     FM080000 08005KT P6SM BKN110=



000
FTUS41 KBUF 071120
TAFJHW
TAF
KJHW 071120Z 0712/0812 20004KT P6SM SCT250
     FM071700 18010G16KT P6SM FEW100 SCT250
     FM072100 17010KT P6SM SCT050 BKN100
     FM080900 16008KT P6SM OVC060
      AMD LTD TO CLD VIS AND WIND=



000
FTUS41 KBUF 071100 AAB
TAFROC
TAF AMD
KROC 071100Z 0711/0806 22005KT P6SM SCT070
     FM071230 21005KT P6SM OVC035
     FM071600 18008KT P6SM SCT035 SCT130
     FM072100 15005KT P6SM BKN130
     FM080000 12005KT P6SM BKN100=



000
FTUS41 KBUF 071059 AAC
TAFBUF
TAF AMD
KBUF 071059Z 0711/0806 21006KT P6SM BKN040
     FM071500 19008KT P6SM BKN100
     FM080000 16006KT P6SM BKN090
     FM080300 14006KT P6SM OVC070=



000
FTUS41 KBUF 071059 AAB
TAFIAG
TAF AMD
KIAG 071059Z 0711/0806 22007KT P6SM OVC035
     FM071500 18009KT P6SM SCT035 BKN140
     FM072200 17007KT P6SM BKN070=



000
FTUS41 KBUF 070910 AAB
TAFART
TAF AMD
KART 070910Z 0709/0806 23008KT P6SM BKN050
     FM071200 20006KT P6SM BKN050
     FM071600 17006KT P6SM BKN050
     FM072100 08006KT P6SM SCT050 BKN100=



000
FTUS41 KBUF 070908 AAA
TAFJHW
TAF AMD
KJHW 070908Z 0709/0806 19004KT P6SM SKC
     FM071500 18008KT P6SM SCT120
     FM072100 18008KT P6SM SCT060 BKN120
      AMD LTD TO CLD VIS AND WIND=



000
FTUS41 KBUF 070908 AAA
TAFJHW
TAF AMD
KJHW 070908Z 0709/0806 19004KT P6SM SKC
     FM071500 18008KT P6SM SCT120
     FM072100 18008KT P6SM SCT060 BKN120
      AMD LTD TO CLD VIS AND WIND=



000
FTUS41 KBUF 070907 AAA
TAFROC
TAF AMD
KROC 070907Z 0709/0806 22005KT P6SM SCT070
     FM071600 18008KT P6SM SCT130
     FM072100 15005KT P6SM BKN130
     FM080000 12005KT P6SM BKN100=



000
FTUS41 KBUF 070906 AAA
TAFIAG
TAF AMD
KIAG 070906Z 0709/0806 22007KT 6SM HZ SCT140
     FM071500 18009KT P6SM BKN140
     FM072200 17007KT P6SM BKN070=



000
FTUS41 KBUF 070905 AAB
TAFBUF
TAF AMD
KBUF 070905Z 0709/0806 22006KT P6SM SCT070
     FM071500 19008KT P6SM BKN100
     FM080000 16006KT P6SM BKN090
     FM080300 14006KT P6SM OVC070=



000
FTUS41 KBUF 070708 AAA
TAFART
TAF AMD
KART 070708Z 0707/0806 23008KT P6SM BKN050
     FM071000 21005KT P6SM SCT050 SCT100
     FM071500 18008KT P6SM SCT050 BKN100
     FM072300 09004KT P6SM BKN140=



000
FTUS41 KBUF 070708 AAA
TAFART
TAF AMD
KART 070708Z 0707/0806 23008KT P6SM BKN050
     FM071000 21005KT P6SM SCT050 SCT100
     FM071500 18008KT P6SM SCT050 BKN100
     FM072300 09004KT P6SM BKN140=



000
FTUS41 KBUF 070705 AAA
TAFBUF
TAF AMD
KBUF 070705Z 0707/0806 22006KT P6SM SCT070
     FM071500 19008KT P6SM BKN100
     FM080000 16006KT P6SM BKN090
     FM080300 14006KT P6SM OVC070=



000
FTUS41 KBUF 070705 AAA
TAFBUF
TAF AMD
KBUF 070705Z 0707/0806 22006KT P6SM SCT070
     FM071500 19008KT P6SM BKN100
     FM080000 16006KT P6SM BKN090
     FM080300 14006KT P6SM OVC070=



000
FTUS41 KBUF 070520
TAFJHW
TAF
KJHW 070520Z 0706/0806 20004KT P6SM SCT120
     FM071800 19010KT P6SM FEW250
     FM072300 17007KT P6SM SCT120
     FM080500 16006KT P6SM BKN110
      AMD LTD TO CLD VIS AND WIND=



000
FTUS41 KBUF 070520
TAFBUF
TAF
KBUF 070520Z 0706/0806 22008KT P6SM BKN070
     FM071000 21006KT P6SM BKN150
     FM072000 18007KT P6SM BKN120
     FM080100 14006KT P6SM BKN090
     FM080300 14006KT P6SM OVC070=



000
FTUS41 KBUF 070520
TAFROC
TAF
KROC 070520Z 0706/0806 23007KT P6SM BKN080
     FM071200 19006KT P6SM BKN200
     FM072100 15005KT P6SM BKN140
     FM080000 12005KT P6SM BKN100
     FM080400 13006KT P6SM BKN070=



000
FTUS41 KBUF 070520
TAFART
TAF
KART 070520Z 0706/0806 24010KT P6SM VCSH OVC040
      TEMPO 0707/0711 5SM -SN BKN025
     FM071200 VRB03KT P6SM OVC035
     FM071600 20005KT P6SM OVC060
     FM071900 17005KT P6SM BKN090
     FM072300 09004KT P6SM BKN140
     FM080300 09007KT P6SM BKN110=



000
FTUS41 KBUF 070520
TAFIAG
TAF
KIAG 070520Z 0706/0806 22009KT P6SM BKN070
     FM071000 23008KT P6SM BKN180
     FM071400 19008KT P6SM BKN130
     FM071800 19010KT P6SM BKN110
     FM072200 17007KT P6SM BKN070=



000
FTUS41 KBUF 070353 AAA
TAFJHW
TAF AMD
KJHW 070353Z 0704/0724 22005KT P6SM FEW200
     FM071200 19004KT P6SM FEW250
     FM071600 17008KT P6SM FEW250
     FM072100 18008KT P6SM BKN110
      AMD LTD TO CLD VIS AND WIND=



000
FTUS41 KBUF 070353 AAA
TAFJHW
TAF AMD
KJHW 070353Z 0704/0724 22005KT P6SM FEW200
     FM071200 19004KT P6SM FEW250
     FM071600 17008KT P6SM FEW250
     FM072100 18008KT P6SM BKN110
      AMD LTD TO CLD VIS AND WIND=



000
FTUS41 KBUF 070353 AAA
TAFART
TAF AMD
KART 070353Z 0704/0724 23012G18KT P6SM BKN050
     FM070600 24010KT P6SM BKN035
     FM070900 24007KT P6SM VCSH BKN025
     FM071300 20004KT P6SM BKN040
     FM071900 17005KT P6SM BKN090
     FM072300 09004KT P6SM BKN140=



000
FTUS41 KBUF 070353 AAA
TAFBUF
TAF AMD
KBUF 070353Z 0704/0724 23010KT P6SM BKN080
     FM070700 23008KT P6SM SCT200
     FM071400 19006KT P6SM SCT200
     FM072100 18006KT P6SM BKN090=



000
FTUS41 KBUF 070353 AAA
TAFROC
TAF AMD
KROC 070353Z 0704/0724 25007KT P6SM BKN080
     FM071000 21004KT P6SM SCT200
     FM071900 17007KT P6SM SCT200
     FM072300 13005KT P6SM BKN130=



000
FTUS41 KBUF 070353 AAA
TAFIAG
TAF AMD
KIAG 070353Z 0704/0724 22010KT P6SM BKN080
     FM070700 23010KT P6SM SCT200
     FM071200 21005KT P6SM BKN140
     FM072200 17007KT P6SM BKN070=



000
FTUS41 KBUF 062323
TAFJHW
TAF
KJHW 062323Z 0700/0724 23005KT P6SM FEW200
     FM071200 19004KT P6SM FEW250
     FM071600 17008KT P6SM FEW250
     FM072100 18008KT P6SM BKN110
      AMD LTD TO CLD VIS AND WIND=



000
FTUS41 KBUF 062323
TAFART
TAF
KART 062323Z 0700/0724 23012G18KT P6SM BKN025
     FM070600 24010KT P6SM BKN035
     FM070900 24007KT P6SM VCSH BKN025
     FM071300 20004KT P6SM BKN040
     FM071900 17005KT P6SM BKN090
     FM072300 09004KT P6SM BKN140=



000
FTUS41 KBUF 062323
TAFROC
TAF
KROC 062323Z 0700/0724 25009KT P6SM SCT200
     FM071200 21004KT P6SM SCT200
     FM071900 17007KT P6SM SCT200
     FM072300 13005KT P6SM BKN130=



000
FTUS41 KBUF 062323
TAFIAG
TAF
KIAG 062323Z 0700/0724 23013KT P6SM SCT200
     FM070500 23010KT P6SM SCT200
     FM071200 21005KT P6SM BKN140
     FM072200 17007KT P6SM BKN070=



000
FTUS41 KBUF 062323
TAFBUF
TAF
KBUF 062323Z 0700/0724 22012KT P6SM SCT200
     FM070500 23008KT P6SM SCT200
     FM071400 19006KT P6SM SCT200
     FM072100 18006KT P6SM BKN090=



000
FTUS41 KBUF 062323
TAFJHW
TAF
KJHW 062323Z 0700/0724 23005KT P6SM FEW200
     FM071200 19004KT P6SM FEW250
     FM071600 17008KT P6SM FEW250
     FM072100 18008KT P6SM BKN110
      AMD LTD TO CLD VIS AND WIND=



000
FTUS41 KBUF 062323
TAFART
TAF
KART 062323Z 0700/0724 23012G18KT P6SM BKN025
     FM070600 24010KT P6SM BKN035
     FM070900 24007KT P6SM VCSH BKN025
     FM071300 20004KT P6SM BKN040
     FM071900 17005KT P6SM BKN090
     FM072300 09004KT P6SM BKN140=



000
FTUS41 KBUF 062323
TAFIAG
TAF
KIAG 062323Z 0700/0724 23013KT P6SM SCT200
     FM070500 23010KT P6SM SCT200
     FM071200 21005KT P6SM BKN140
     FM072200 17007KT P6SM BKN070=



000
FTUS41 KBUF 062323
TAFROC
TAF
KROC 062323Z 0700/0724 25009KT P6SM SCT200
     FM071200 21004KT P6SM SCT200
     FM071900 17007KT P6SM SCT200
     FM072300 13005KT P6SM BKN130=



000
FTUS41 KBUF 062323
TAFBUF
TAF
KBUF 062323Z 0700/0724 22012KT P6SM SCT200
     FM070500 23008KT P6SM SCT200
     FM071400 19006KT P6SM SCT200
     FM072100 18006KT P6SM BKN090=



000
FTUS41 KBUF 062021 AAA
TAFART
TAF AMD
KART 062021Z 0620/0718 23014KT P6SM BKN040
     FM070300 24008KT P6SM BKN040
     FM071000 22008KT P6SM VCSH BKN025
     FM071600 20006KT P6SM BKN040=



000
FTUS41 KBUF 062021 AAA
TAFIAG
TAF AMD
KIAG 062021Z 0620/0718 24016G24KT P6SM FEW040
     FM062200 23012KT P6SM FEW040
     FM070300 22010KT P6SM SCT040
     FM071400 19010KT P6SM BKN100=



000
FTUS41 KBUF 062021 AAA
TAFBUF
TAF AMD
KBUF 062021Z 0620/0718 23016G24KT P6SM FEW040
     FM062300 23012KT P6SM FEW040
     FM070300 23008KT P6SM SCT040
     FM071400 21008KT P6SM BKN100=



000
FTUS41 KBUF 062021 AAA
TAFJHW
TAF AMD
KJHW 062021Z 0620/0718 24008KT P6SM SKC
     FM070300 24005KT P6SM SKC
     FM071400 18008KT P6SM SCT100
      AMD LTD TO CLD VIS AND WIND=



000
FTUS41 KBUF 062021 AAA
TAFROC
TAF AMD
KROC 062021Z 0620/0718 25014G22KT P6SM SCT040
     FM062200 24012KT P6SM SCT040
     FM070300 22006KT P6SM SCT040
     FM071400 20006KT P6SM SCT100=



000
FTUS41 KBUF 061732
TAFIAG
TAF
KIAG 061732Z 0618/0718 23012KT P6SM SCT040
     FM070300 22010KT P6SM SCT040
     FM071400 19010KT P6SM BKN100=



000
FTUS41 KBUF 061732
TAFBUF
TAF
KBUF 061732Z 0618/0718 24014G20KT P6SM SCT025 BKN040
     FM062000 23012KT P6SM SCT050
     FM070300 23008KT P6SM SCT040
     FM071400 21008KT P6SM BKN100=



000
FTUS41 KBUF 061732
TAFJHW
TAF
KJHW 061732Z 0618/0718 23010KT P6SM SCT025
     FM062200 23006KT P6SM SKC
     FM071400 18008KT P6SM SCT100
      AMD LTD TO CLD VIS AND WIND=



000
FTUS41 KBUF 061732
TAFROC
TAF
KROC 061732Z 0618/0718 24014G22KT P6SM VCSH BKN030
     FM061900 25012G20KT P6SM BKN040
     FM062200 24012KT P6SM SCT050
     FM070300 22006KT P6SM SCT040
     FM071400 20006KT P6SM SCT100=



000
FTUS41 KBUF 061732
TAFART
TAF
KART 061732Z 0618/0718 24016G24KT 2SM -SHSN OVC015
     FM061900 25016G24KT 6SM -SHSN OVC025
     FM062000 23014KT P6SM BKN040
     FM070300 24008KT P6SM BKN040
     FM071000 22008KT P6SM VCSH BKN025
     FM071600 20006KT P6SM BKN040=



000
FTUS41 KBUF 061643 AAC
TAFROC
TAF AMD
KROC 061643Z 0617/0712 25012G20KT 6SM -SHSN OVC030
     FM061800 24014G22KT P6SM BKN060
     FM062200 25012KT P6SM SCT200
     FM070600 22006KT P6SM SCT200=



000
FTUS41 KBUF 061643 AAB
TAFJHW
TAF AMD
KJHW 061643Z 0617/0712 24010KT P6SM SCT025
     FM070000 23006KT P6SM SCT200
      AMD LTD TO CLD VIS AND WIND=



000
FTUS41 KBUF 061643 AAC
TAFROC
TAF AMD
KROC 061643Z 0617/0712 25012G20KT 6SM -SHSN OVC030
     FM061800 24014G22KT P6SM BKN060
     FM062200 25012KT P6SM SCT200
     FM070600 22006KT P6SM SCT200=



000
FTUS41 KBUF 061643 AAB
TAFJHW
TAF AMD
KJHW 061643Z 0617/0712 24010KT P6SM SCT025
     FM070000 23006KT P6SM SCT200
      AMD LTD TO CLD VIS AND WIND=



000
FTUS41 KBUF 061642 AAB
TAFBUF
TAF AMD
KBUF 061642Z 0617/0712 24014G20KT P6SM BKN050
     FM062000 23012KT P6SM SCT200
     FM070600 23008KT P6SM SCT200=



000
FTUS41 KBUF 061642 AAC
TAFIAG
TAF AMD
KIAG 061642Z 0617/0712 26014G20KT P6SM BKN050
     FM061800 23012KT P6SM SCT200
     FM070500 23009KT P6SM SCT200=



000
FTUS41 KBUF 061642 AAB
TAFBUF
TAF AMD
KBUF 061642Z 0617/0712 24014G20KT P6SM BKN050
     FM062000 23012KT P6SM SCT200
     FM070600 23008KT P6SM SCT200=



000
FTUS41 KBUF 061642 AAC
TAFIAG
TAF AMD
KIAG 061642Z 0617/0712 26014G20KT P6SM BKN050
     FM061800 23012KT P6SM SCT200
     FM070500 23009KT P6SM SCT200=



000
FTUS41 KBUF 061442 AAB
TAFIAG
TAF AMD
KIAG 061442Z 0615/0712 25014G22KT P6SM OVC025
     FM061700 26014G22KT P6SM BKN050
     FM062000 23012KT P6SM SCT200
     FM070500 23009KT P6SM SCT200=



000
FTUS41 KBUF 061442 AAA
TAFART
TAF AMD
KART 061442Z 0615/0712 20012KT 4SM -SHSN OVC040
     FM061700 24016G24KT 2SM -SHSN OVC015
     FM061900 25014G22KT P6SM OVC025
     FM062100 23014KT P6SM BKN050
     FM070600 23009KT P6SM BKN050=



000
FTUS41 KBUF 061442 AAA
TAFJHW
TAF AMD
KJHW 061442Z 0615/0712 23010KT P6SM BKN025
     FM061800 25010KT P6SM SCT025
     FM070000 23006KT P6SM SCT200
      AMD LTD TO CLD VIS AND WIND=



000
FTUS41 KBUF 061442 AAB
TAFROC
TAF AMD
KROC 061442Z 0615/0712 22010KT P6SM OVC040
     FM061530 25012G20KT 3SM -SHSN OVC030
     FM061800 24014G22KT P6SM BKN060
     FM062200 25012KT P6SM SCT200
     FM070600 22006KT P6SM SCT200=



000
FTUS41 KBUF 061442 AAB
TAFBUF
TAF AMD
KBUF 061442Z 0615/0712 25016G24KT P6SM VCSH OVC025
     FM061700 24016G22KT P6SM BKN050
     FM062100 23012KT P6SM SCT200
     FM070600 23008KT P6SM SCT200=



000
FTUS41 KBUF 061357 AAA
TAFROC
TAF AMD
KROC 061357Z 0614/0712 22010KT P6SM OVC060
     FM061500 25014G20KT 3SM -SHSN OVC030
     FM061700 24014G20KT P6SM BKN060
     FM062200 25013KT P6SM SCT200
     FM070600 22006KT P6SM SCT200=



000
FTUS41 KBUF 061356 AAA
TAFIAG
TAF AMD
KIAG 061356Z 0614/0712 24016G24KT 5SM -SHSN OVC025
     FM061500 25014G20KT P6SM OVC050
     FM062200 23013KT P6SM SCT200
     FM070500 23009KT P6SM SCT200=



000
FTUS41 KBUF 061355 AAA
TAFBUF
TAF AMD
KBUF 061355Z 0614/0712 25018G26KT 3SM -SHSN OVC025
     FM061500 25016G24KT P6SM OVC025
     FM061700 24016G22KT P6SM BKN050
     FM062200 23012KT P6SM SCT200
     FM070600 23008KT P6SM SCT200=



000
FTUS41 KBUF 061120
TAFART
TAF
KART 061120Z 0612/0712 20009KT 6SM -SHSN OVC040
      TEMPO 0612/0616 2SM -SN OVC025
     FM061600 22015G21KT P6SM VCSH OVC035
     FM061900 23015G21KT P6SM OVC040
     FM062300 23013KT P6SM BKN050
     FM070600 23009KT P6SM BKN050=



000
FTUS41 KBUF 061120
TAFROC
TAF
KROC 061120Z 0612/0712 22010KT P6SM OVC060
     FM061500 23012KT P6SM OVC050
     FM061700 24014G20KT P6SM BKN060
     FM062200 25013KT P6SM SCT200
     FM070600 22006KT P6SM SCT200=



000
FTUS41 KBUF 061120
TAFIAG
TAF
KIAG 061120Z 0612/0712 21012KT P6SM OVC060
     FM061400 24012KT P6SM OVC040
     FM061600 24014G20KT P6SM OVC050
     FM062200 23013KT P6SM SCT200
     FM070500 23009KT P6SM SCT200=



000
FTUS41 KBUF 061120
TAFJHW
TAF
KJHW 061120Z 0612/0712 20008KT P6SM OVC060
     FM061500 23010KT P6SM SCT200
     FM070000 23006KT P6SM SCT200
      AMD LTD TO CLD VIS AND WIND=



000
FTUS41 KBUF 061120
TAFIAG
TAF
KIAG 061120Z 0612/0712 21012KT P6SM OVC060
     FM061400 24012KT P6SM OVC040
     FM061600 24014G20KT P6SM OVC050
     FM062200 23013KT P6SM SCT200
     FM070500 23009KT P6SM SCT200=



000
FTUS41 KBUF 061120
TAFROC
TAF
KROC 061120Z 0612/0712 22010KT P6SM OVC060
     FM061500 23012KT P6SM OVC050
     FM061700 24014G20KT P6SM BKN060
     FM062200 25013KT P6SM SCT200
     FM070600 22006KT P6SM SCT200=



000
FTUS41 KBUF 061120
TAFJHW
TAF
KJHW 061120Z 0612/0712 20008KT P6SM OVC060
     FM061500 23010KT P6SM SCT200
     FM070000 23006KT P6SM SCT200
      AMD LTD TO CLD VIS AND WIND=



000
FTUS41 KBUF 061120
TAFBUF
TAF
KBUF 061120Z 0612/0712 20012KT P6SM OVC060
     FM061400 23013KT P6SM OVC025
     FM061700 24016G22KT P6SM BKN050
     FM062200 23012KT P6SM SCT200
     FM070600 23008KT P6SM SCT200=



000
FTUS41 KBUF 061120
TAFBUF
TAF
KBUF 061120Z 0612/0712 20012KT P6SM OVC060
     FM061400 23013KT P6SM OVC025
     FM061700 24016G22KT P6SM BKN050
     FM062200 23012KT P6SM SCT200
     FM070600 23008KT P6SM SCT200=



000
FTUS41 KBUF 061120
TAFART
TAF
KART 061120Z 0612/0712 20009KT 6SM -SHSN OVC040
      TEMPO 0612/0616 2SM -SN OVC025
     FM061600 22015G21KT P6SM VCSH OVC035
     FM061900 23015G21KT P6SM OVC040
     FM062300 23013KT P6SM BKN050
     FM070600 23009KT P6SM BKN050=



000
FTUS41 KBUF 060905 AAA
TAFJHW
TAF AMD
KJHW 060905Z 0609/0706 19006KT P6SM OVC060
     FM061200 22009KT P6SM BKN015
     FM061400 23009KT P6SM BKN060
     FM061600 24010KT P6SM BKN080
     FM062100 24010KT P6SM BKN070
     FM062300 24007KT P6SM SCT070
      AMD LTD TO CLD VIS AND WIND=



000
FTUS41 KBUF 060905 AAB
TAFBUF
TAF AMD
KBUF 060905Z 0609/0706 21009KT P6SM OVC070
     FM061200 22011KT P6SM VCSH BKN025
     FM061600 24013KT P6SM BKN035
     FM061800 24014G20KT P6SM BKN035
     FM062300 23013KT P6SM BKN070
     FM070400 24010G19KT P6SM BKN250=



000
FTUS41 KBUF 060905 AAB
TAFART
TAF AMD
KART 060905Z 0609/0706 23006KT P6SM VCSH BKN025
      TEMPO 0610/0613 3SM -SHSN
     FM061300 21008KT 2SM -SN OVC020
     FM061600 22013KT 5SM -SN OVC025
     FM061800 23015G21KT P6SM -SN OVC025
     FM062200 24014G20KT P6SM OVC040=



000
FTUS41 KBUF 060905 AAA
TAFROC
TAF AMD
KROC 060905Z 0609/0706 22008KT P6SM OVC070
     FM061200 22008KT P6SM OVC040
     FM061700 24014KT P6SM BKN025
     FM061900 24014G20KT P6SM BKN090
     FM062300 24011KT P6SM BKN070
     FM070400 24011G20KT P6SM BKN250=



000
FTUS41 KBUF 060905 AAA
TAFIAG
TAF AMD
KIAG 060905Z 0609/0706 21008KT P6SM OVC070
     FM061300 23010KT P6SM BKN030
     FM061900 23015G22KT P6SM BKN070
     FM070000 23014KT P6SM BKN070
     FM070100 24013G20KT P6SM BKN060
     FM070400 24012G22KT P6SM BKN250=



000
FTUS41 KBUF 060759 AAA
TAFART
TAF AMD
KART 060759Z 0608/0706 18004KT 1SM -SN OVC020
     FM060900 23006KT P6SM VCSH BKN020
     FM061200 21008KT 2SM -SN OVC020
     FM061600 22013KT 5SM -SN OVC025
     FM061800 23015G21KT P6SM -SN OVC025
     FM062200 24014G20KT P6SM OVC040=



000
FTUS41 KBUF 060520
TAFIAG
TAF
KIAG 060520Z 0606/0706 21008KT P6SM BKN050
     FM061300 23010KT P6SM BKN030
     FM061900 23015G22KT P6SM BKN070
     FM070000 23014KT P6SM BKN070
     FM070100 24013G20KT P6SM BKN060
     FM070400 24012G22KT P6SM BKN250=



000
FTUS41 KBUF 060520
TAFJHW
TAF
KJHW 060520Z 0606/0706 20006KT P6SM BKN110
     FM061200 22009KT P6SM BKN015
     FM061400 23009KT P6SM BKN060
     FM061600 24010KT P6SM BKN080
     FM062100 24010KT P6SM BKN070
     FM062300 24007KT P6SM SCT070
      AMD LTD TO CLD VIS AND WIND=



000
FTUS41 KBUF 060520
TAFART
TAF
KART 060520Z 0606/0706 18004KT P6SM BKN045
     FM060900 23006KT P6SM VCSH BKN020
     FM061100 21008KT 3SM -SN OVC020
     FM061600 22013KT 5SM -SN OVC025
     FM061800 23015G21KT P6SM -SN OVC025
     FM062200 24014G20KT P6SM OVC040=



000
FTUS41 KBUF 060520
TAFROC
TAF
KROC 060520Z 0606/0706 23008KT P6SM BKN060
     FM061100 22008KT P6SM OVC040
     FM061700 24014KT P6SM BKN025
     FM061900 24014G20KT P6SM BKN090
     FM062300 24011KT P6SM BKN070
     FM070400 24011G20KT P6SM BKN250=



000
FTUS41 KBUF 060520
TAFBUF
TAF
KBUF 060520Z 0606/0706 21008KT P6SM BKN045
     FM061200 22011KT P6SM VCSH BKN025
     FM061600 24013KT P6SM BKN035
     FM061800 24014G20KT P6SM BKN035
     FM062300 23013KT P6SM BKN070
     FM070400 24010G19KT P6SM BKN250=



000
FTUS41 KBUF 060303 AAA
TAFJHW
TAF AMD
KJHW 060303Z 0603/0624 22005KT P6SM BKN050
     FM060900 21009KT P6SM BKN035
     FM061600 23011KT P6SM BKN080
     FM062100 24010KT P6SM BKN070
     FM062300 24007KT P6SM SCT070
      AMD LTD TO CLD VIS AND WIND=



000
FTUS41 KBUF 060303 AAA
TAFIAG
TAF AMD
KIAG 060303Z 0603/0624 23008KT P6SM BKN200
     FM060500 22008KT P6SM BKN045
     FM061100 23011KT P6SM OVC020
     FM061500 24012KT P6SM BKN080
     FM061700 24014G20KT P6SM BKN080=



000
FTUS41 KBUF 060303 AAA
TAFBUF
TAF AMD
KBUF 060303Z 0603/0624 22008KT P6SM BKN025
     FM061200 23011KT P6SM VCSH BKN025
     FM061600 24013KT P6SM BKN035
     FM061900 24015G21KT P6SM BKN040
     FM062300 23013KT P6SM BKN070=



000
FTUS41 KBUF 060303 AAA
TAFART
TAF AMD
KART 060303Z 0603/0624 22004KT P6SM SCT050
     FM060900 23007KT P6SM VCSH OVC035
     FM061100 22008KT 3SM -SN OVC020
     FM061600 22013KT 5SM -SN OVC025
     FM061800 23015G21KT P6SM -SN OVC025
     FM062200 24014G20KT P6SM OVC040=



000
FTUS41 KBUF 060303 AAA
TAFROC
TAF AMD
KROC 060303Z 0603/0624 24007KT P6SM BKN070
     FM061100 21009KT P6SM OVC040
     FM061500 23013KT P6SM BKN040
     FM061900 24014G20KT P6SM BKN090
     FM062300 24011KT P6SM BKN070=



000
FTUS41 KBUF 052338
TAFROC
TAF
KROC 052338Z 0600/0624 28006KT 6SM -SN BKN035
     FM060200 25007KT P6SM BKN070
     FM061100 21009KT P6SM OVC040
     FM061500 23013KT P6SM BKN040
     FM061900 24014G20KT P6SM BKN090
     FM062300 24011KT P6SM BKN070=



000
FTUS41 KBUF 052338
TAFIAG
TAF
KIAG 052338Z 0600/0624 23008KT P6SM BKN060
     FM060300 23008KT P6SM BKN200
     FM060500 22008KT P6SM BKN045
     FM061100 23011KT P6SM OVC020
     FM061500 24012KT P6SM BKN080
     FM061700 24014G20KT P6SM BKN080=



000
FTUS41 KBUF 052338
TAFBUF
TAF
KBUF 052338Z 0600/0624 24009KT P6SM BKN050
     FM060300 23008KT P6SM BKN200
     FM061200 23011KT P6SM VCSH BKN025
     FM061600 24013KT P6SM BKN035
     FM061900 24015G21KT P6SM BKN040
     FM062300 23013KT P6SM BKN070=



000
FTUS41 KBUF 052338
TAFJHW
TAF
KJHW 052338Z 0600/0624 25005KT P6SM OVC035
     FM060300 21005KT P6SM BKN050
     FM060900 21009KT P6SM BKN035
     FM061600 23011KT P6SM BKN080
     FM062100 24010KT P6SM BKN070
     FM062300 24007KT P6SM SCT070
      AMD LTD TO CLD VIS AND WIND=



000
FTUS41 KBUF 052338
TAFART
TAF
KART 052338Z 0600/0624 22006KT P6SM SCT050
     FM060900 23007KT P6SM VCSH OVC035
     FM061100 22008KT 3SM -SN OVC020
     FM061600 22013KT 5SM -SN OVC025
     FM061800 23015G21KT P6SM -SN OVC025
     FM062200 24014G20KT P6SM OVC040=



000
FTUS41 KBUF 052338
TAFIAG
TAF
KIAG 052338Z 0600/0624 23008KT P6SM BKN060
     FM060300 23008KT P6SM BKN200
     FM060500 22008KT P6SM BKN045
     FM061100 23011KT P6SM OVC020
     FM061500 24012KT P6SM BKN080
     FM061700 24014G20KT P6SM BKN080=



000
FTUS41 KBUF 052338
TAFBUF
TAF
KBUF 052338Z 0600/0624 24009KT P6SM BKN050
     FM060300 23008KT P6SM BKN200
     FM061200 23011KT P6SM VCSH BKN025
     FM061600 24013KT P6SM BKN035
     FM061900 24015G21KT P6SM BKN040
     FM062300 23013KT P6SM BKN070=



000
FTUS41 KBUF 052338
TAFROC
TAF
KROC 052338Z 0600/0624 28006KT 6SM -SN BKN035
     FM060200 25007KT P6SM BKN070
     FM061100 21009KT P6SM OVC040
     FM061500 23013KT P6SM BKN040
     FM061900 24014G20KT P6SM BKN090
     FM062300 24011KT P6SM BKN070=



000
FTUS41 KBUF 052338
TAFART
TAF
KART 052338Z 0600/0624 22006KT P6SM SCT050
     FM060900 23007KT P6SM VCSH OVC035
     FM061100 22008KT 3SM -SN OVC020
     FM061600 22013KT 5SM -SN OVC025
     FM061800 23015G21KT P6SM -SN OVC025
     FM062200 24014G20KT P6SM OVC040=



000
FTUS41 KBUF 052338
TAFJHW
TAF
KJHW 052338Z 0600/0624 25005KT P6SM OVC035
     FM060300 21005KT P6SM BKN050
     FM060900 21009KT P6SM BKN035
     FM061600 23011KT P6SM BKN080
     FM062100 24010KT P6SM BKN070
     FM062300 24007KT P6SM SCT070
      AMD LTD TO CLD VIS AND WIND=



000
FTUS41 KBUF 052049 AAB
TAFBUF
TAF AMD
KBUF 052049Z 0521/0618 24012G18KT 6SM -SHSN SCT025 BKN035
     FM060000 24008KT P6SM SCT025 BKN035
     FM060600 22008KT P6SM VCSH OVC035
     FM060900 23008KT 4SM -SN BKN025
     FM061300 23010KT P6SM VCSH SCT025 OVC035
     FM061600 24012G18KT P6SM OVC035=



000
FTUS41 KBUF 052048 AAA
TAFIAG
TAF AMD
KIAG 052048Z 0521/0618 23006KT P6SM SCT015 BKN035
     FM060600 21008KT P6SM OVC035
     FM061500 24012G18KT P6SM OVC035=



000
FTUS41 KBUF 052047 AAA
TAFROC
TAF AMD
KROC 052047Z 0521/0618 30010KT 6SM -SHSN SCT025 BKN040
     FM060000 25006KT P6SM BKN040
     FM060800 22008KT P6SM BKN040
     FM061500 23012G18KT P6SM BKN040=



000
FTUS41 KBUF 052047 AAA
TAFROC
TAF AMD
KROC 052047Z 0521/0618 30010KT 6SM -SHSN SCT025 BKN040
     FM060000 25006KT P6SM BKN040
     FM060800 22008KT P6SM BKN040
     FM061500 23012G18KT P6SM BKN040=



000
FTUS41 KBUF 052046 AAA
TAFJHW
TAF AMD
KJHW 052046Z 0521/0618 26008KT P6SM BKN035
      TEMPO 0521/0523 BKN025
     FM052300 24006KT P6SM FEW080 SCT110
     FM060300 21006KT P6SM SCT025 BKN040
     FM061500 23012G18KT P6SM BKN040
      AMD LTD TO CLD VIS AND WIND=



000
FTUS41 KBUF 052046 AAA
TAFJHW
TAF AMD
KJHW 052046Z 0521/0618 26008KT P6SM BKN035
      TEMPO 0521/0523 BKN025
     FM052300 24006KT P6SM FEW080 SCT110
     FM060300 21006KT P6SM SCT025 BKN040
     FM061500 23012G18KT P6SM BKN040
      AMD LTD TO CLD VIS AND WIND=



000
FTUS41 KBUF 052045 AAA
TAFART
TAF AMD
KART 052045Z 0521/0618 24006KT P6SM SCT050
     FM060200 24004KT P6SM SCT025 BKN040
     FM061000 23006KT 4SM -SN BKN025
     FM061500 22012KT P6SM VCSH BKN025=



000
FTUS41 KBUF 052045 AAA
TAFART
TAF AMD
KART 052045Z 0521/0618 24006KT P6SM SCT050
     FM060200 24004KT P6SM SCT025 BKN040
     FM061000 23006KT 4SM -SN BKN025
     FM061500 22012KT P6SM VCSH BKN025=



    US Dept of Commerce
    National Oceanic and Atmospheric Administration
    National Weather Service
    1325 East West Highway
    Silver Spring, MD 20910
    Page Author: NWS Internet Services Team
Disclaimer
Information Quality
Credits
Glossary
Privacy Policy
Freedom of Information Act (FOIA)
About Us
Career Opportunities